createdAt,value
2018-12-06T00:00:55.526Z,100.00
2018-12-06T00:03:22.346Z,100.00
2018-12-06T00:05:48.256Z,100.00
2018-12-06T00:08:17.435Z,100.00
2018-12-06T00:10:43.360Z,100.00
2018-12-06T00:13:12.976Z,100.00
2018-12-06T00:15:38.885Z,100.00
2018-12-06T00:18:06.851Z,100.00
2018-12-06T00:20:32.745Z,100.00
2018-12-06T00:22:58.612Z,100.00
2018-12-06T00:25:24.498Z,100.00
2018-12-06T00:27:50.364Z,100.00
2018-12-06T00:30:41.976Z,100.00
2018-12-06T00:33:08.005Z,100.00
2018-12-06T00:35:33.903Z,100.00
2018-12-06T00:37:59.749Z,100.00
2018-12-06T00:55:10.298Z,100.00
2018-12-06T00:57:36.865Z,100.00
2018-12-06T01:00:06.593Z,100.00
2018-12-06T01:02:33.112Z,100.00
2018-12-06T01:07:41.729Z,100.00
2018-12-06T01:10:08.199Z,100.00
2018-12-06T01:20:42.518Z,100.00
2018-12-06T01:23:17.418Z,100.00
2018-12-06T01:25:43.313Z,100.00
2018-12-06T01:28:09.258Z,100.00
2018-12-06T01:30:35.261Z,100.00
2018-12-06T01:33:01.156Z,100.00
2018-12-06T01:35:28.136Z,100.00
2018-12-06T01:37:54.094Z,100.00
2018-12-06T01:40:20.088Z,100.00
2018-12-06T01:42:45.983Z,100.00
2018-12-06T01:45:11.848Z,100.00
2018-12-06T01:47:37.690Z,100.00
2018-12-06T01:50:05.081Z,100.00
2018-12-06T01:52:30.981Z,100.00
2018-12-06T01:54:56.846Z,100.00
2018-12-06T01:57:22.752Z,100.00
2018-12-06T01:59:48.660Z,100.00
2018-12-06T02:02:14.532Z,100.00
2018-12-06T02:04:40.439Z,100.00
2018-12-06T02:07:06.345Z,100.00
2018-12-06T02:09:33.516Z,100.00
2018-12-06T02:11:59.864Z,100.00
2018-12-06T02:14:29.280Z,100.00
2018-12-06T02:16:55.150Z,100.00
2018-12-06T02:19:24.247Z,100.00
2018-12-06T02:21:50.139Z,99.74
2018-12-06T02:24:17.978Z,98.59
2018-12-06T02:26:44.018Z,100.00
2018-12-06T02:29:13.686Z,100.00
2018-12-06T02:31:39.594Z,100.00
2018-12-06T02:34:05.537Z,100.00
2018-12-06T02:36:31.384Z,100.00
2018-12-06T02:38:57.337Z,100.00
2018-12-06T02:41:24.356Z,100.00
2018-12-06T02:43:50.370Z,100.00
2018-12-06T02:46:19.243Z,100.00
2018-12-06T02:48:45.137Z,100.00
2018-12-06T02:51:15.003Z,100.00
2018-12-06T02:53:40.911Z,100.00
2018-12-06T02:56:08.691Z,100.00
2018-12-06T02:58:34.712Z,100.00
2018-12-06T03:01:04.414Z,100.00
2018-12-06T03:03:30.395Z,100.00
2018-12-06T03:05:59.374Z,100.00
2018-12-06T03:08:25.220Z,100.00
2018-12-06T03:10:54.492Z,100.00
2018-12-06T03:13:20.488Z,100.00
2018-12-06T03:15:46.361Z,100.00
2018-12-06T03:18:12.482Z,100.00
2018-12-06T03:20:42.642Z,100.00
2018-12-06T03:23:08.637Z,100.00
2018-12-06T03:25:34.734Z,100.00
2018-12-06T03:28:00.607Z,100.00
2018-12-06T03:30:26.601Z,100.00
2018-12-06T03:32:53.397Z,100.00
2018-12-06T03:35:19.285Z,100.00
2018-12-06T03:37:47.893Z,100.00
2018-12-06T03:40:13.774Z,99.74
2018-12-06T03:45:17.971Z,100.00
2018-12-06T03:47:43.906Z,100.00
2018-12-06T03:50:09.891Z,100.00
2018-12-06T03:52:35.806Z,100.00
2018-12-06T03:55:01.698Z,100.00
2018-12-06T03:57:27.591Z,100.00
2018-12-06T03:59:53.467Z,100.00
2018-12-06T04:02:19.373Z,100.00
2018-12-06T04:04:45.236Z,100.00
2018-12-06T04:07:11.087Z,100.00
2018-12-06T04:09:40.029Z,100.00
2018-12-06T04:12:05.961Z,100.00
2018-12-06T04:14:33.786Z,100.00
2018-12-06T04:16:59.681Z,100.00
2018-12-06T04:19:28.370Z,100.00
2018-12-06T04:21:54.227Z,99.88
2018-12-06T04:24:21.102Z,99.99
2018-12-06T04:26:47.075Z,100.00
2018-12-06T04:29:12.999Z,100.00
2018-12-06T04:31:40.363Z,100.00
2018-12-06T04:34:06.262Z,100.00
2018-12-06T04:36:35.276Z,100.00
2018-12-06T04:39:01.130Z,100.00
2018-12-06T04:41:30.139Z,99.91
2018-12-06T04:43:56.080Z,99.97
2018-12-06T04:46:25.650Z,100.00
2018-12-06T04:48:51.678Z,100.00
2018-12-06T04:51:19.312Z,100.00
2018-12-06T04:53:45.184Z,99.91
2018-12-06T04:56:15.018Z,99.69
2018-12-06T04:58:40.935Z,99.58
2018-12-06T05:01:09.752Z,99.89
2018-12-06T05:03:35.713Z,99.70
2018-12-06T05:06:01.650Z,100.00
2018-12-06T05:08:27.511Z,100.00
2018-12-06T05:10:53.481Z,99.55
2018-12-06T05:13:20.793Z,99.38
2018-12-06T05:15:46.856Z,99.94
2018-12-06T05:18:14.694Z,100.00
2018-12-06T05:20:40.577Z,100.00
2018-12-06T05:23:09.453Z,100.00
2018-12-06T05:25:35.350Z,100.00
2018-12-06T05:28:04.070Z,100.00
2018-12-06T05:30:29.961Z,100.00
2018-12-06T05:32:58.926Z,100.00
2018-12-06T05:35:24.829Z,100.00
2018-12-06T05:37:50.737Z,100.00
2018-12-06T05:40:17.138Z,100.00
2018-12-06T05:42:43.098Z,100.00
2018-12-06T05:45:10.923Z,100.00
2018-12-06T05:47:36.782Z,100.00
2018-12-06T05:50:05.433Z,100.00
2018-12-06T05:52:31.313Z,100.00
2018-12-06T05:55:00.935Z,100.00
2018-12-06T05:57:26.831Z,100.00
2018-12-06T05:59:55.983Z,100.00
2018-12-06T06:02:21.860Z,100.00
2018-12-06T06:04:49.506Z,100.00
2018-12-06T06:07:15.393Z,100.00
2018-12-06T06:09:44.579Z,100.00
2018-12-06T06:12:10.695Z,100.00
2018-12-06T06:14:36.643Z,100.00
2018-12-06T06:17:02.565Z,100.00
2018-12-06T06:19:28.437Z,100.00
2018-12-06T06:21:57.689Z,100.00
2018-12-06T06:24:23.654Z,100.00
2018-12-06T06:26:50.700Z,100.00
2018-12-06T06:29:16.533Z,100.00
2018-12-06T06:31:45.428Z,100.00
2018-12-06T06:34:11.295Z,100.00
2018-12-06T06:36:40.850Z,100.00
2018-12-06T06:39:06.786Z,100.00
2018-12-06T06:41:35.922Z,100.00
2018-12-06T06:44:01.799Z,100.00
2018-12-06T06:46:29.628Z,100.00
2018-12-06T06:48:55.523Z,100.00
2018-12-06T06:51:21.390Z,100.00
2018-12-06T06:53:47.308Z,100.00
2018-12-06T06:56:13.184Z,100.00
2018-12-06T06:58:42.431Z,100.00
2018-12-06T07:01:08.332Z,100.00
2018-12-06T07:03:36.127Z,100.00
2018-12-06T07:06:02.311Z,100.00
2018-12-06T07:08:31.798Z,100.00
2018-12-06T07:10:57.700Z,100.00
2018-12-06T07:13:26.489Z,100.00
2018-12-06T07:15:52.499Z,100.00
2018-12-06T07:18:20.225Z,100.00
2018-12-06T07:20:46.127Z,100.00
2018-12-06T07:23:15.600Z,100.00
2018-12-06T07:25:46.308Z,100.00
2018-12-06T07:28:15.737Z,100.00
2018-12-06T07:30:41.605Z,100.00
2018-12-06T07:33:07.516Z,100.00
2018-12-06T07:35:33.620Z,100.00
2018-12-06T07:38:01.393Z,100.00
2018-12-06T07:43:03.541Z,100.00
2018-12-06T07:45:29.479Z,100.00
2018-12-06T07:47:55.643Z,100.00
2018-12-06T07:50:21.623Z,100.00
2018-12-06T07:52:53.809Z,100.00
2018-12-06T07:55:20.032Z,100.00
2018-12-06T07:57:45.950Z,100.00
2018-12-06T08:00:12.255Z,100.00
2018-12-06T08:02:38.115Z,100.00
2018-12-06T08:05:04.262Z,100.00
2018-12-06T08:07:30.137Z,100.00
2018-12-06T08:09:56.044Z,100.00
2018-12-06T08:12:22.015Z,100.00
2018-12-06T08:14:47.943Z,100.00
2018-12-06T08:17:13.833Z,100.00
2018-12-06T08:19:39.730Z,100.00
2018-12-06T08:22:05.677Z,100.00
2018-12-06T08:24:31.555Z,100.00
2018-12-06T08:26:57.467Z,100.00
2018-12-06T08:29:23.371Z,100.00
2018-12-06T08:31:50.936Z,100.00
2018-12-06T08:34:16.810Z,100.00
2018-12-06T08:36:46.384Z,100.00
2018-12-06T08:39:12.411Z,100.00
2018-12-06T08:41:38.347Z,100.00
2018-12-06T08:44:04.717Z,100.00
2018-12-06T08:46:30.609Z,100.00
2018-12-06T08:49:02.934Z,100.00
2018-12-06T08:51:25.961Z,100.00
2018-12-06T08:53:52.614Z,100.00
2018-12-06T08:56:24.564Z,100.00
2018-12-06T08:58:56.194Z,100.00
2018-12-06T09:01:22.712Z,100.00
2018-12-06T09:03:48.664Z,100.00
2018-12-06T09:06:14.565Z,100.00
2018-12-06T09:08:40.472Z,100.00
2018-12-06T09:11:06.340Z,100.00
2018-12-06T09:13:32.227Z,100.00
2018-12-06T09:15:58.114Z,100.00
2018-12-06T09:18:24.065Z,100.00
2018-12-06T09:20:53.746Z,100.00
2018-12-06T09:23:19.618Z,100.00
2018-12-06T09:25:46.367Z,100.00
2018-12-06T09:28:12.367Z,100.00
2018-12-06T09:30:38.518Z,100.00
2018-12-06T09:33:04.413Z,100.00
2018-12-06T09:35:33.504Z,100.00
2018-12-06T09:37:59.385Z,100.00
2018-12-06T09:40:27.230Z,100.00
2018-12-06T09:42:56.604Z,100.00
2018-12-06T09:45:22.536Z,100.00
2018-12-06T09:47:48.407Z,100.00
2018-12-06T09:50:18.051Z,100.00
2018-12-06T09:52:44.849Z,100.00
2018-12-06T09:55:11.181Z,100.00
2018-12-06T09:57:37.083Z,100.00
2018-12-06T10:00:05.905Z,100.00
2018-12-06T10:02:31.746Z,100.00
2018-12-06T10:04:57.746Z,100.00
2018-12-06T10:07:23.648Z,100.00
2018-12-06T10:09:49.499Z,100.00
2018-12-06T10:12:17.330Z,100.00
2018-12-06T10:14:43.277Z,100.00
2018-12-06T10:17:12.362Z,100.00
2018-12-06T10:19:38.275Z,100.00
2018-12-06T10:22:06.500Z,100.00
2018-12-06T10:24:32.427Z,100.00
2018-12-06T10:27:02.086Z,100.00
2018-12-06T10:29:27.955Z,100.00
2018-12-06T10:31:53.939Z,100.00
2018-12-06T10:34:19.894Z,100.00
2018-12-06T10:36:45.773Z,100.00
2018-12-06T10:39:15.142Z,100.00
2018-12-06T10:41:41.376Z,100.00
2018-12-06T10:44:13.138Z,100.00
2018-12-06T10:46:39.009Z,100.00
2018-12-06T10:49:06.075Z,100.00
2018-12-06T10:51:38.956Z,100.00
2018-12-06T10:54:04.810Z,100.00
2018-12-06T10:56:30.765Z,100.00
2018-12-06T10:58:56.662Z,100.00
2018-12-06T11:01:24.552Z,100.00
2018-12-06T11:03:55.842Z,100.00
2018-12-06T11:06:21.755Z,100.00
2018-12-06T11:08:47.644Z,100.00
2018-12-06T11:11:15.571Z,100.00
2018-12-06T11:13:41.469Z,100.00
2018-12-06T11:16:07.477Z,100.00
2018-12-06T11:18:33.360Z,100.00
2018-12-06T11:20:59.265Z,100.00
2018-12-06T11:23:25.147Z,100.00
2018-12-06T11:25:51.042Z,100.00
2018-12-06T11:28:16.908Z,100.00
2018-12-06T11:30:46.396Z,100.00
2018-12-06T11:33:16.551Z,100.00
2018-12-06T11:35:42.789Z,100.00
2018-12-06T11:38:09.251Z,100.00
2018-12-06T11:40:35.315Z,99.74
2018-12-06T11:43:01.421Z,100.00
2018-12-06T11:45:27.345Z,99.52
2018-12-06T11:47:53.240Z,100.00
2018-12-06T11:50:19.166Z,100.00
2018-12-06T11:52:46.099Z,99.84
2018-12-06T11:55:15.129Z,99.95
2018-12-06T11:57:41.099Z,100.00
2018-12-06T12:00:07.240Z,99.70
2018-12-06T12:02:34.484Z,99.89
2018-12-06T12:05:00.356Z,99.35
2018-12-06T12:07:28.135Z,99.61
2018-12-06T12:09:54.080Z,99.06
2018-12-06T12:12:22.915Z,99.17
2018-12-06T12:14:49.060Z,99.47
2018-12-06T12:17:17.565Z,98.65
2018-12-06T12:19:43.651Z,99.43
2018-12-06T12:22:09.552Z,99.08
2018-12-06T12:24:35.426Z,98.61
2018-12-06T12:27:01.351Z,99.78
2018-12-06T12:29:30.680Z,100.00
2018-12-06T12:31:56.808Z,99.99
2018-12-06T12:34:24.522Z,99.78
2018-12-06T12:36:51.160Z,100.00
2018-12-06T12:39:20.296Z,100.00
2018-12-06T12:41:46.172Z,100.00
2018-12-06T12:44:13.868Z,99.64
2018-12-06T12:46:39.741Z,100.00
2018-12-06T12:49:10.920Z,100.00
2018-12-06T12:51:36.937Z,99.53
2018-12-06T12:54:02.973Z,98.77
2018-12-06T12:56:28.964Z,98.82
2018-12-06T12:58:54.832Z,98.83
2018-12-06T13:01:20.792Z,99.94
2018-12-06T13:03:46.718Z,99.18
2018-12-06T13:06:16.272Z,100.00
2018-12-06T13:08:42.226Z,100.00
2018-12-06T13:11:10.087Z,100.00
2018-12-06T13:13:36.152Z,99.99
2018-12-06T13:16:05.854Z,99.16
2018-12-06T13:18:31.752Z,96.85
2018-12-06T13:20:58.846Z,93.45
2018-12-06T13:23:24.755Z,92.05
2018-12-06T13:25:53.454Z,91.09
2018-12-06T13:28:19.348Z,91.62
2018-12-06T13:30:48.140Z,92.11
2018-12-06T13:33:14.050Z,92.67
2018-12-06T13:35:40.004Z,91.08
2018-12-06T13:38:05.893Z,91.80
2018-12-06T13:40:31.785Z,92.36
2018-12-06T13:43:00.817Z,92.06
2018-12-06T13:45:26.742Z,93.27
2018-12-06T13:47:56.451Z,93.56
2018-12-06T13:50:22.326Z,94.06
2018-12-06T13:52:50.172Z,93.55
2018-12-06T13:55:16.199Z,93.05
2018-12-06T13:57:45.895Z,92.60
2018-12-06T14:00:16.749Z,92.81
2018-12-06T14:02:42.834Z,93.47
2018-12-06T14:05:09.007Z,93.21
2018-12-06T14:07:34.880Z,93.44
2018-12-06T14:10:00.842Z,92.59
2018-12-06T14:12:26.738Z,91.84
2018-12-06T14:14:53.786Z,91.07
2018-12-06T14:17:19.665Z,91.34
2018-12-06T14:19:46.314Z,92.08
2018-12-06T14:22:12.211Z,91.83
2018-12-06T14:24:42.531Z,92.15
2018-12-06T14:27:08.465Z,91.64
2018-12-06T14:29:35.582Z,92.05
2018-12-06T14:32:01.604Z,92.29
2018-12-06T14:34:29.449Z,92.81
2018-12-06T14:37:02.224Z,93.84
2018-12-06T14:39:24.468Z,94.18
2018-12-06T14:41:50.364Z,94.51
2018-12-06T14:44:18.914Z,95.05
2018-12-06T14:46:44.812Z,95.03
2018-12-06T14:49:11.753Z,94.79
2018-12-06T14:51:37.722Z,95.38
2018-12-06T14:54:03.660Z,95.66
2018-12-06T14:56:31.491Z,95.12
2018-12-06T14:58:57.428Z,96.20
2018-12-06T15:01:27.056Z,95.59
2018-12-06T15:03:52.900Z,95.47
2018-12-06T15:06:21.967Z,95.89
2018-12-06T15:08:50.221Z,96.47
2018-12-06T15:11:16.269Z,96.16
2018-12-06T15:13:42.196Z,95.39
2018-12-06T15:16:09.699Z,96.01
2018-12-06T15:18:35.568Z,96.72
2018-12-06T15:21:05.192Z,96.67
2018-12-06T15:23:31.188Z,96.87
2018-12-06T15:25:57.134Z,96.89
2018-12-06T15:28:23.011Z,97.09
2018-12-06T15:30:48.914Z,97.38
2018-12-06T15:33:16.015Z,97.25
2018-12-06T15:35:41.926Z,97.78
2018-12-06T15:38:18.383Z,98.08
2018-12-06T15:40:52.744Z,97.83
2018-12-06T15:43:25.998Z,97.66
2018-12-06T15:46:00.229Z,98.38
2018-12-06T15:48:30.365Z,97.43
2018-12-06T15:51:03.124Z,97.32
2018-12-06T15:53:29.789Z,97.86
2018-12-06T15:55:55.667Z,97.75
2018-12-06T15:58:21.563Z,98.30
2018-12-06T16:00:55.643Z,98.23
2018-12-06T16:03:25.144Z,97.92
2018-12-06T16:05:58.713Z,97.83
2018-12-06T16:08:25.148Z,98.07
2018-12-06T16:10:56.080Z,97.51
2018-12-06T16:13:21.914Z,97.70
2018-12-06T16:15:54.371Z,98.49
2018-12-06T16:18:21.284Z,98.78
2018-12-06T16:20:47.157Z,98.49
2018-12-06T16:23:13.036Z,98.30
2018-12-06T16:25:38.898Z,98.72
2018-12-06T16:28:04.813Z,99.30
2018-12-06T16:30:30.745Z,99.71
2018-12-06T16:32:56.640Z,99.76
2018-12-06T16:35:22.524Z,99.87
2018-12-06T16:37:48.357Z,99.91
2018-12-06T16:40:14.299Z,99.38
2018-12-06T16:42:40.158Z,99.46
2018-12-06T16:45:06.578Z,99.07
2018-12-06T16:47:32.509Z,99.34
2018-12-06T16:49:58.448Z,99.65
2018-12-06T16:52:24.357Z,99.13
2018-12-06T16:54:50.284Z,99.42
2018-12-06T16:57:16.157Z,99.71
2018-12-06T16:59:42.061Z,99.95
2018-12-06T17:02:07.929Z,99.03
2018-12-06T17:04:36.697Z,99.48
2018-12-06T17:07:02.608Z,98.79
2018-12-06T17:09:28.529Z,98.81
2018-12-06T17:11:54.421Z,98.83
2018-12-06T17:14:20.331Z,98.67
2018-12-06T17:16:46.233Z,99.43
2018-12-06T17:19:12.122Z,99.33
2018-12-06T17:21:38.027Z,98.51
2018-12-06T17:24:03.941Z,97.83
2018-12-06T17:26:29.834Z,98.33
2018-12-06T17:28:55.740Z,98.65
2018-12-06T17:31:21.756Z,98.54
2018-12-06T17:33:47.605Z,98.80
2018-12-06T17:36:13.511Z,98.94
2018-12-06T17:38:39.416Z,99.02
2018-12-06T17:41:05.277Z,99.57
2018-12-06T17:43:31.161Z,99.43
2018-12-06T17:45:57.016Z,99.89
2018-12-06T17:48:22.904Z,99.64
2018-12-06T17:50:48.748Z,100.00
2018-12-06T17:53:14.667Z,99.95
2018-12-06T17:55:55.691Z,99.79
2018-12-06T17:58:21.593Z,99.54
2018-12-06T18:00:47.519Z,99.51
2018-12-06T18:03:13.443Z,100.00
2018-12-06T18:05:44.318Z,100.00
2018-12-06T18:08:10.570Z,100.00
2018-12-06T18:10:36.696Z,100.00
2018-12-06T18:13:02.597Z,100.00
2018-12-06T18:15:28.804Z,100.00
2018-12-06T18:17:54.683Z,100.00
2018-12-06T18:20:20.588Z,100.00
2018-12-06T18:22:46.910Z,100.00
2018-12-06T18:25:13.117Z,100.00
2018-12-06T18:27:38.977Z,100.00
2018-12-06T18:30:07.538Z,100.00
2018-12-06T18:32:33.404Z,100.00
2018-12-06T18:34:59.387Z,100.00
2018-12-06T18:37:25.305Z,100.00
2018-12-06T18:39:51.196Z,100.00
2018-12-06T18:42:17.372Z,100.00
2018-12-06T18:44:43.249Z,100.00
2018-12-06T18:47:09.201Z,100.00
2018-12-06T18:49:35.106Z,100.00
2018-12-06T18:52:01.267Z,100.00
2018-12-06T18:54:27.314Z,100.00
2018-12-06T18:56:53.226Z,100.00
2018-12-06T18:59:19.121Z,100.00
2018-12-06T19:01:49.044Z,100.00
2018-12-06T19:04:15.146Z,100.00
2018-12-06T19:06:41.296Z,100.00
2018-12-06T19:09:07.511Z,100.00
2018-12-06T19:11:33.424Z,100.00
2018-12-06T19:13:59.277Z,100.00
2018-12-06T19:16:25.172Z,100.00
2018-12-06T19:18:51.124Z,100.00
2018-12-06T19:21:17.072Z,100.00
2018-12-06T19:23:42.956Z,100.00
2018-12-06T19:26:08.987Z,100.00
2018-12-06T19:28:34.853Z,100.00
2018-12-06T19:31:06.009Z,100.00
2018-12-06T19:33:31.995Z,100.00
2018-12-06T19:35:58.096Z,100.00
2018-12-06T19:38:23.983Z,100.00
2018-12-06T19:40:49.882Z,100.00
2018-12-06T19:43:16.002Z,100.00
2018-12-06T19:45:41.916Z,100.00
2018-12-06T19:48:07.812Z,100.00
2018-12-06T19:50:33.742Z,100.00
2018-12-06T19:52:59.632Z,100.00
2018-12-06T19:55:28.544Z,100.00
2018-12-06T19:57:54.407Z,100.00
2018-12-06T20:00:23.958Z,100.00
2018-12-06T20:02:49.854Z,100.00
2018-12-06T20:05:17.635Z,100.00
2018-12-06T20:07:43.526Z,100.00
2018-12-06T20:10:13.501Z,100.00
2018-12-06T20:12:39.377Z,100.00
2018-12-06T20:15:08.583Z,100.00
2018-12-06T20:17:34.455Z,100.00
2018-12-06T20:20:00.362Z,100.00
2018-12-06T20:22:26.265Z,100.00
2018-12-06T20:24:52.203Z,100.00
2018-12-06T20:27:19.360Z,100.00
2018-12-06T20:29:45.208Z,100.00
2018-12-06T20:32:14.929Z,100.00
2018-12-06T20:34:41.077Z,100.00
2018-12-06T20:37:10.393Z,100.00
2018-12-06T20:39:39.281Z,100.00
2018-12-06T20:42:05.156Z,100.00
2018-12-06T20:44:31.156Z,100.00
2018-12-06T20:46:58.070Z,100.00
2018-12-06T20:49:23.974Z,100.00
2018-12-06T20:51:53.742Z,100.00
2018-12-06T20:54:19.625Z,100.00
2018-12-06T20:56:45.528Z,100.00
2018-12-06T20:59:11.580Z,100.00
2018-12-06T21:01:39.547Z,100.00
2018-12-06T21:04:05.465Z,100.00
2018-12-06T21:06:31.357Z,100.00
2018-12-06T21:09:00.342Z,100.00
2018-12-06T21:11:26.238Z,100.00
2018-12-06T21:13:55.303Z,100.00
2018-12-06T21:16:21.233Z,100.00
2018-12-06T21:18:48.850Z,100.00
2018-12-06T21:21:14.714Z,100.00
2018-12-06T21:23:44.755Z,100.00
2018-12-06T21:26:10.879Z,100.00
2018-12-06T21:28:38.283Z,100.00
2018-12-06T21:31:04.297Z,100.00
2018-12-06T21:33:30.192Z,100.00
2018-12-06T21:35:56.157Z,100.00
2018-12-06T21:38:23.568Z,100.00
2018-12-06T21:40:49.467Z,100.00
2018-12-06T21:43:15.386Z,100.00
2018-12-06T21:45:44.144Z,100.00
2018-12-06T21:48:10.009Z,100.00
2018-12-06T21:50:38.986Z,99.85
2018-12-06T21:53:05.003Z,100.00
2018-12-06T21:55:33.947Z,100.00
2018-12-06T21:57:59.944Z,99.61
2018-12-06T22:00:29.171Z,99.44
2018-12-06T22:02:55.091Z,99.39
2018-12-06T22:05:24.169Z,99.21
2018-12-06T22:07:50.110Z,99.68
2018-12-06T22:10:15.971Z,99.07
2018-12-06T22:12:41.855Z,99.47
2018-12-06T22:15:07.763Z,99.51
2018-12-06T22:17:34.786Z,99.37
2018-12-06T22:20:00.695Z,99.77
2018-12-06T22:22:30.511Z,99.46
2018-12-06T22:24:56.509Z,99.88
2018-12-06T22:27:26.037Z,99.55
2018-12-06T22:29:51.942Z,100.00
2018-12-06T22:32:19.614Z,99.58
2018-12-06T22:34:45.487Z,99.90
2018-12-06T22:37:15.326Z,99.64
2018-12-06T22:39:41.320Z,99.80
2018-12-06T22:42:08.292Z,100.00
2018-12-06T22:44:34.203Z,100.00
2018-12-06T22:47:00.064Z,100.00
2018-12-06T22:49:25.938Z,100.00
2018-12-06T22:51:51.803Z,100.00
2018-12-06T22:54:21.292Z,100.00
2018-12-06T22:56:47.181Z,100.00
2018-12-06T22:59:14.870Z,100.00
2018-12-06T23:01:40.984Z,100.00
2018-12-06T23:04:09.480Z,100.00
2018-12-06T23:06:35.386Z,100.00
2018-12-06T23:09:06.121Z,100.00
2018-12-06T23:11:32.024Z,100.00
2018-12-06T23:13:58.932Z,100.00
2018-12-06T23:16:24.883Z,100.00
2018-12-06T23:18:53.501Z,100.00
2018-12-06T23:21:19.377Z,100.00
2018-12-06T23:23:45.258Z,100.00
2018-12-06T23:26:11.852Z,100.00
2018-12-06T23:28:37.795Z,100.00
2018-12-06T23:31:06.787Z,100.00
2018-12-06T23:33:32.671Z,100.00
2018-12-06T23:36:00.510Z,100.00
2018-12-06T23:38:26.399Z,100.00
2018-12-06T23:40:55.234Z,100.00
2018-12-06T23:43:21.115Z,100.00
2018-12-06T23:45:49.795Z,100.00
2018-12-06T23:48:15.665Z,100.00
2018-12-06T23:50:44.413Z,100.00
2018-12-06T23:53:10.398Z,100.00
2018-12-06T23:55:39.193Z,100.00
2018-12-06T23:58:05.070Z,100.00
